Time;durP1;ratioP1;P1;durP2;ratioP2;P2;SDS_P1;SDS_P2;PMS_P1;PMS_P2;Temp;Humidity;BMP_temperature;BMP_pressure;BME280_temperature;BME280_humidity;BME280_pressure;Samples;Min_cycle;Max_cycle;Signal;HPM_P1;HPM_P2
2021/12/19 00:00:09;;;;;;;12.45;6.93;;;7.70;94.10;;;;;;5048300;28;20053;-67
2021/12/19 00:10:23;;;;;;;8.27;4.72;;;7.60;94.30;;;;;;5048142;28;20049;-67
2021/12/19 00:12:50;;;;;;;7.15;4.68;;;7.60;94.30;;;;;;5048252;28;20043;-67
2021/12/19 00:15:16;;;;;;;6.95;4.68;;;7.60;94.30;;;;;;5033102;28;20053;-67
2021/12/19 00:17:41;;;;;;;6.65;3.90;;;7.60;94.20;;;;;;5047651;28;20037;-67
2021/12/19 00:20:07;;;;;;;6.63;3.17;;;7.60;94.30;;;;;;5040719;28;20111;-67
2021/12/19 00:22:33;;;;;;;4.95;3.17;;;7.70;94.40;;;;;;5045385;28;20076;-67
2021/12/19 00:25:00;;;;;;;5.18;2.85;;;7.60;94.20;;;;;;5048967;28;20085;-67
2021/12/19 00:27:26;;;;;;;5.95;2.97;;;7.50;94.40;;;;;;5045754;28;20063;-67
2021/12/19 00:29:51;;;;;;;3.88;2.78;;;7.50;94.40;;;;;;5029217;28;20494;-67
2021/12/19 00:32:17;;;;;;;4.25;2.60;;;7.50;94.40;;;;;;5041988;28;20051;-67
2021/12/19 00:34:42;;;;;;;3.60;2.63;;;7.50;94.40;;;;;;5046531;28;20128;-67
2021/12/19 00:37:08;;;;;;;4.32;2.92;;;7.50;94.40;;;;;;5047276;28;20047;-67
2021/12/19 00:39:34;;;;;;;5.25;3.17;;;7.60;94.40;;;;;;5047487;28;20037;-67
2021/12/19 00:41:59;;;;;;;6.40;3.05;;;7.60;94.30;;;;;;5046211;28;20103;-67
2021/12/19 00:44:26;;;;;;;5.20;3.47;;;7.60;94.30;;;;;;5042527;28;20040;-67
2021/12/19 00:47:03;;;;;;;4.40;2.60;;;7.60;94.40;;;;;;5039300;28;20457;-67
2021/12/19 00:49:30;;;;;;;5.22;2.70;;;7.60;94.40;;;;;;5046475;28;20498;-67
2021/12/19 00:51:55;;;;;;;5.95;3.00;;;7.50;94.40;;;;;;5049393;28;20044;-67
2021/12/19 00:54:21;;;;;;;4.93;2.50;;;7.60;94.30;;;;;;5051476;28;20041;-67
2021/12/19 00:56:48;;;;;;;3.95;2.70;;;7.50;94.30;;;;;;5046318;28;20128;-67
2021/12/19 00:59:15;;;;;;;4.35;2.42;;;7.60;94.30;;;;;;5050480;28;20098;-67
2021/12/19 01:01:41;;;;;;;4.45;2.53;;;7.50;94.40;;;;;;5050883;28;20502;-67
2021/12/19 01:04:10;;;;;;;5.20;2.75;;;7.50;94.40;;;;;;5041588;28;20060;-67
2021/12/19 01:06:38;;;;;;;6.72;2.85;;;7.60;94.40;;;;;;5039427;28;20048;-67
2021/12/19 01:09:04;;;;;;;4.78;3.05;;;7.50;94.40;;;;;;5048780;28;20080;-67
2021/12/19 01:11:30;;;;;;;6.90;2.92;;;7.50;94.40;;;;;;5049301;28;20512;-67
2021/12/19 01:13:56;;;;;;;3.83;2.58;;;7.50;94.30;;;;;;5047868;28;20057;-67
2021/12/19 01:16:22;;;;;;;3.47;2.83;;;7.60;94.30;;;;;;5046587;28;20048;-67
2021/12/19 01:18:48;;;;;;;3.92;2.72;;;7.50;94.20;;;;;;5050906;28;20071;-67
2021/12/19 01:21:14;;;;;;;4.57;2.70;;;7.60;94.10;;;;;;5050470;28;20493;-67
2021/12/19 01:23:40;;;;;;;5.32;2.35;;;7.60;94.20;;;;;;5051585;28;20041;-67
2021/12/19 01:26:05;;;;;;;3.50;2.50;;;7.60;94.20;;;;;;5043518;28;20049;-67
2021/12/19 01:28:31;;;;;;;3.88;2.75;;;7.60;94.30;;;;;;5034297;28;20037;-67
2021/12/19 01:30:57;;;;;;;5.28;3.00;;;7.50;94.30;;;;;;5050273;28;20052;-67
2021/12/19 01:33:22;;;;;;;4.80;3.08;;;7.60;94.30;;;;;;5033569;28;20041;-67
2021/12/19 01:35:48;;;;;;;5.60;3.00;;;7.60;94.20;;;;;;5049287;28;20127;-67
2021/12/19 01:38:14;;;;;;;4.15;2.10;;;7.50;94.30;;;;;;5041575;28;20490;-67
2021/12/19 01:40:39;;;;;;;4.10;1.52;;;7.60;94.30;;;;;;5037762;28;20121;-67
2021/12/19 01:43:05;;;;;;;2.63;1.38;;;7.60;94.10;;;;;;5050590;28;20127;-67
2021/12/19 01:45:37;;;;;;;1.73;1.30;;;7.60;93.90;;;;;;5047657;28;20119;-67
2021/12/19 01:48:07;;;;;;;1.52;1.20;;;7.50;93.90;;;;;;5031601;28;20050;-67
2021/12/19 01:50:33;;;;;;;2.38;1.10;;;7.50;93.80;;;;;;5044964;28;20044;-67
2021/12/19 01:53:01;;;;;;;3.15;1.20;;;7.60;94.00;;;;;;5042108;28;20045;-67
2021/12/19 01:55:26;;;;;;;1.25;0.85;;;7.60;93.40;;;;;;5050445;28;20147;-67
2021/12/19 01:57:53;;;;;;;2.28;0.93;;;7.50;93.40;;;;;;5051117;28;20120;-67
2021/12/19 02:00:30;;;;;;;3.40;1.20;;;7.40;93.60;;;;;;5050339;28;20114;-66
2021/12/19 02:02:57;;;;;;;2.72;1.33;;;7.40;93.60;;;;;;5031813;28;20065;-67
2021/12/19 02:05:25;;;;;;;3.40;1.38;;;7.40;93.60;;;;;;5050427;28;20162;-67
2021/12/19 02:07:52;;;;;;;3.45;1.45;;;7.40;93.50;;;;;;5032583;28;20049;-67
2021/12/19 02:10:26;;;;;;;3.42;1.77;;;7.40;93.50;;;;;;5048916;28;20049;-67
2021/12/19 02:12:53;;;;;;;1.90;1.25;;;7.40;93.40;;;;;;5043678;28;20050;-67
2021/12/19 02:15:22;;;;;;;2.47;1.30;;;7.30;93.70;;;;;;5033594;28;20053;-67
2021/12/19 02:17:51;;;;;;;2.40;1.42;;;7.30;93.60;;;;;;5039081;28;20041;-67
2021/12/19 02:20:18;;;;;;;3.13;1.17;;;7.30;93.50;;;;;;5033246;28;20592;-67
2021/12/19 02:22:44;;;;;;;2.90;1.30;;;7.20;93.50;;;;;;5048831;28;20048;-67
2021/12/19 02:25:10;;;;;;;2.25;1.00;;;7.30;93.50;;;;;;5050241;28;20110;-67
2021/12/19 02:27:37;;;;;;;3.10;1.42;;;7.20;93.40;;;;;;5035379;28;20052;-67
2021/12/19 02:30:07;;;;;;;2.17;1.50;;;7.10;93.30;;;;;;5045009;28;20063;-66
2021/12/19 02:32:34;;;;;;;3.38;1.75;;;7.10;93.50;;;;;;5049165;28;20067;-67
2021/12/19 02:35:04;;;;;;;3.28;2.03;;;7.10;93.60;;;;;;5049797;28;20049;-67
2021/12/19 02:48:37;;;;;;;4.57;1.63;;;7.20;92.70;;;;;;5041076;28;20045;-67
2021/12/19 02:50:56;;;;;;;5.78;3.17;;;7.10;92.90;;;;;;5045879;28;20053;-67
2021/12/19 02:53:32;;;;;;;4.43;1.77;;;7.10;93.00;;;;;;5042658;28;20064;-67
2021/12/19 02:56:01;;;;;;;4.38;1.90;;;7.20;93.20;;;;;;5031770;28;20068;-67
2021/12/19 02:58:28;;;;;;;7.68;1.63;;;7.20;93.20;;;;;;5048299;28;20041;-67
2021/12/19 03:00:53;;;;;;;2.70;1.63;;;7.10;93.40;;;;;;5048891;28;20894;-67
2021/12/19 03:03:19;;;;;;;2.30;1.33;;;7.20;93.30;;;;;;5048441;28;20036;-66
2021/12/19 03:05:45;;;;;;;3.00;1.23;;;7.10;93.20;;;;;;5039697;28;20080;-67
2021/12/19 03:08:11;;;;;;;1.25;1.00;;;7.10;93.20;;;;;;5049136;28;20037;-67
2021/12/19 03:17:56;;;;;;;5.07;1.15;;;7.10;93.20;;;;;;5034743;28;20042;-67
2021/12/19 03:19:04;;;;;;;2.95;1.00;;;7.10;93.40;;;;;;5044195;28;20841;-67
2021/12/19 03:21:29;;;;;;;2.97;1.08;;;7.10;93.40;;;;;;5049254;28;20047;-67
2021/12/19 03:23:55;;;;;;;2.03;1.20;;;7.00;93.60;;;;;;5049180;28;20071;-67
2021/12/19 03:26:21;;;;;;;3.35;1.08;;;7.10;93.70;;;;;;5048138;28;20065;-67
2021/12/19 03:28:47;;;;;;;1.10;1.00;;;7.10;93.70;;;;;;5048542;28;20065;-66
2021/12/19 03:31:13;;;;;;;6.25;1.05;;;7.00;93.60;;;;;;5048973;28;20084;-67
2021/12/19 03:33:38;;;;;;;4.05;1.02;;;7.00;93.50;;;;;;5048737;28;20047;-67
2021/12/19 03:36:05;;;;;;;3.90;1.23;;;7.00;93.70;;;;;;5045584;28;20414;-67
2021/12/19 03:38:33;;;;;;;1.40;0.93;;;7.00;93.40;;;;;;5036359;28;20055;-67
2021/12/19 03:41:15;;;;;;;1.67;1.15;;;7.00;93.60;;;;;;5048544;28;20068;-67
2021/12/19 03:43:41;;;;;;;2.40;1.42;;;7.00;93.50;;;;;;5046464;28;20047;-66
2021/12/19 03:46:07;;;;;;;5.30;1.02;;;7.00;93.70;;;;;;5045246;28;20152;-67
2021/12/19 03:48:32;;;;;;;2.22;1.30;;;7.00;93.80;;;;;;5043234;28;20041;-66
2021/12/19 03:50:59;;;;;;;1.98;1.23;;;7.00;93.70;;;;;;5049066;28;20409;-67
2021/12/19 03:53:25;;;;;;;2.75;1.35;;;7.00;93.80;;;;;;5048406;28;20087;-66
2021/12/19 03:55:51;;;;;;;1.23;1.10;;;7.00;93.80;;;;;;5048693;28;20039;-67
2021/12/19 03:58:18;;;;;;;3.05;1.65;;;7.00;93.80;;;;;;5048368;28;20049;-67
2021/12/19 04:00:45;;;;;;;2.47;1.63;;;7.00;93.80;;;;;;5033151;28;20045;-67
2021/12/19 04:03:17;;;;;;;4.63;1.45;;;7.00;93.80;;;;;;5048444;28;20041;-66
2021/12/19 04:05:43;;;;;;;2.72;1.50;;;7.00;93.70;;;;;;5046901;28;20691;-67
2021/12/19 04:08:10;;;;;;;4.25;1.58;;;7.00;93.70;;;;;;5047676;28;20060;-66
2021/12/19 04:10:35;;;;;;;2.55;1.25;;;7.00;93.60;;;;;;5048581;28;20048;-67
2021/12/19 04:13:02;;;;;;;5.97;1.58;;;6.90;93.60;;;;;;5048023;28;20045;-67
2021/12/19 04:15:27;;;;;;;3.30;1.60;;;7.00;93.40;;;;;;5048671;28;20052;-67
2021/12/19 04:17:53;;;;;;;4.60;1.65;;;7.00;93.50;;;;;;5046462;28;20048;-67
2021/12/19 04:20:19;;;;;;;5.03;1.50;;;7.00;93.50;;;;;;5048157;28;20500;-67
2021/12/19 04:22:50;;;;;;;2.63;1.35;;;7.00;93.40;;;;;;5043729;28;20064;-66
2021/12/19 04:25:16;;;;;;;9.30;1.80;;;7.00;93.40;;;;;;5031259;28;20060;-67
2021/12/19 04:27:42;;;;;;;4.18;1.38;;;7.00;93.40;;;;;;5037041;28;20041;-66
2021/12/19 04:30:11;;;;;;;2.80;1.35;;;7.00;93.40;;;;;;5034084;28;20146;-66
2021/12/19 04:32:42;;;;;;;2.13;1.27;;;7.00;93.50;;;;;;5032799;28;20048;-67
2021/12/19 04:35:09;;;;;;;2.88;1.20;;;7.10;93.30;;;;;;5051606;28;20045;-67
2021/12/19 04:40:33;;;;;;;7.55;1.50;;;7.10;93.40;;;;;;5032648;28;20076;-67
2021/12/19 04:56:40;;;;;;;5.72;2.50;;;7.10;93.40;;;;;;5047414;28;20042;-67
2021/12/19 04:59:48;;;;;;;8.65;2.83;;;7.10;93.50;;;;;;5035477;28;20060;-67
2021/12/19 05:02:11;;;;;;;11.23;3.10;;;7.20;93.40;;;;;;5047638;28;20183;-67
2021/12/19 05:15:00;;;;;;;8.43;2.88;;;7.20;93.40;;;;;;5042230;28;20041;-66
2021/12/19 05:17:28;;;;;;;13.43;4.15;;;7.30;93.50;;;;;;5038323;28;20044;-67
2021/12/19 05:22:32;;;;;;;12.93;4.63;;;7.30;93.60;;;;;;5050342;28;20194;-67
2021/12/19 05:25:07;;;;;;;13.23;4.07;;;7.20;93.30;;;;;;5046673;28;20042;-67
2021/12/19 05:27:33;;;;;;;12.75;4.05;;;7.40;93.60;;;;;;5045028;28;20048;-66
2021/12/19 05:29:59;;;;;;;11.38;4.38;;;7.40;93.20;;;;;;5050581;28;20034;-67
2021/12/19 05:32:25;;;;;;;20.38;5.32;;;7.30;93.10;;;;;;5045745;28;20122;-67
2021/12/19 05:34:51;;;;;;;12.32;5.80;;;7.40;93.10;;;;;;5048341;28;20043;-67
2021/12/19 05:45:30;;;;;;;19.40;7.35;;;7.50;92.40;;;;;;5051144;28;20140;-66
2021/12/19 05:47:56;;;;;;;22.02;8.38;;;7.50;92.40;;;;;;5031735;28;20041;-67
2021/12/19 05:50:23;;;;;;;20.05;6.90;;;7.50;92.30;;;;;;5050386;28;20041;-67
2021/12/19 05:52:49;;;;;;;17.80;6.88;;;7.50;92.30;;;;;;5050588;28;20084;-67
2021/12/19 05:55:16;;;;;;;19.58;8.07;;;7.50;92.20;;;;;;5050712;28;20478;-67
2021/12/19 05:57:42;;;;;;;21.83;7.18;;;7.50;92.30;;;;;;5050963;28;20040;-67
2021/12/19 06:00:12;;;;;;;18.38;7.95;;;7.50;92.30;;;;;;5050423;28;20083;-67
2021/12/19 06:02:40;;;;;;;19.85;7.80;;;7.60;92.40;;;;;;5050667;28;20037;-68
2021/12/19 06:05:07;;;;;;;25.85;7.32;;;7.60;92.20;;;;;;5050403;28;20045;-67
2021/12/19 06:07:32;;;;;;;18.85;8.02;;;7.60;92.00;;;;;;5039374;28;20045;-67
2021/12/19 06:09:59;;;;;;;17.17;7.90;;;7.60;92.00;;;;;;5045549;28;20102;-66
2021/12/19 06:12:25;;;;;;;24.17;7.75;;;7.60;92.10;;;;;;5039553;28;20053;-66
2021/12/19 06:14:50;;;;;;;22.05;7.43;;;7.60;91.90;;;;;;5049319;28;20485;-66
2021/12/19 06:17:16;;;;;;;16.77;6.38;;;7.60;92.00;;;;;;5045582;28;20046;-67
2021/12/19 06:19:42;;;;;;;24.33;7.38;;;7.60;92.00;;;;;;5029965;28;20501;-66
2021/12/19 06:22:08;;;;;;;12.20;4.50;;;7.60;91.90;;;;;;5035854;28;20045;-67
2021/12/19 06:24:34;;;;;;;16.15;3.72;;;7.60;91.90;;;;;;5050301;28;20076;-67
2021/12/19 06:27:01;;;;;;;14.02;3.55;;;7.60;91.70;;;;;;5064764;28;20090;-66
2021/12/19 06:29:28;;;;;;;20.33;4.20;;;7.70;91.60;;;;;;5065244;28;20037;-67
2021/12/19 06:31:54;;;;;;;13.32;3.55;;;7.60;91.30;;;;;;5056422;28;20033;-67
2021/12/19 06:34:20;;;;;;;12.05;3.75;;;7.60;91.40;;;;;;5056433;28;20128;-66
2021/12/19 06:36:45;;;;;;;9.35;3.67;;;7.60;91.20;;;;;;5050409;28;20124;-66
2021/12/19 06:39:11;;;;;;;17.85;3.25;;;7.60;91.00;;;;;;5049094;28;20041;-67
2021/12/19 06:41:37;;;;;;;15.80;4.18;;;7.60;91.20;;;;;;5049877;28;20053;-67
2021/12/19 06:44:04;;;;;;;15.85;3.42;;;7.60;90.60;;;;;;5049902;28;20041;-67
2021/12/19 06:46:30;;;;;;;17.30;5.13;;;7.60;90.90;;;;;;5047975;28;20057;-67
2021/12/19 06:48:56;;;;;;;14.98;3.35;;;7.60;90.80;;;;;;5048928;28;20553;-67
2021/12/19 06:51:22;;;;;;;14.13;3.50;;;7.50;90.70;;;;;;5049803;28;20119;-67
2021/12/19 06:53:48;;;;;;;12.18;3.65;;;7.50;90.90;;;;;;5049885;28;20041;-67
2021/12/19 06:56:14;;;;;;;17.20;5.40;;;7.60;90.80;;;;;;5048701;28;20179;-66
2021/12/19 06:58:40;;;;;;;15.45;3.58;;;7.60;90.90;;;;;;5049923;28;20049;-67
2021/12/19 07:01:06;;;;;;;24.30;4.50;;;7.50;90.80;;;;;;5040287;28;20059;-67
2021/12/19 07:03:32;;;;;;;13.20;3.78;;;7.60;91.00;;;;;;5049406;28;20036;-67
2021/12/19 07:05:57;;;;;;;15.45;4.25;;;7.50;90.60;;;;;;5031015;28;20037;-66
2021/12/19 07:08:23;;;;;;;18.58;4.28;;;7.50;90.80;;;;;;5048445;28;20053;-67
2021/12/19 07:10:49;;;;;;;18.58;3.85;;;7.60;90.90;;;;;;5049028;28;20032;-67
2021/12/19 07:13:20;;;;;;;23.17;5.13;;;7.60;90.80;;;;;;5047847;28;20094;-67
2021/12/19 07:15:50;;;;;;;15.80;4.47;;;7.60;91.00;;;;;;5042604;28;20167;-67
2021/12/19 07:18:16;;;;;;;18.95;3.83;;;7.60;91.10;;;;;;5048670;28;20127;-67
2021/12/19 07:20:43;;;;;;;15.27;3.92;;;7.50;91.30;;;;;;5048412;28;20155;-67
2021/12/19 07:23:13;;;;;;;13.18;3.53;;;7.50;91.40;;;;;;5030637;28;20048;-67
2021/12/19 07:25:39;;;;;;;6.93;2.35;;;7.60;91.40;;;;;;5048554;28;20040;-67
2021/12/19 07:28:06;;;;;;;3.72;1.45;;;7.60;91.30;;;;;;5048996;28;20037;-68
2021/12/19 07:30:31;;;;;;;4.20;1.27;;;7.60;91.00;;;;;;5048735;28;20040;-66
2021/12/19 07:32:58;;;;;;;8.15;1.50;;;7.60;90.80;;;;;;5048424;28;20033;-67
2021/12/19 07:35:24;;;;;;;7.43;1.45;;;7.50;90.70;;;;;;5047693;28;20044;-67
2021/12/19 07:37:51;;;;;;;6.47;1.70;;;7.50;90.80;;;;;;5048824;28;20071;-67
2021/12/19 07:40:19;;;;;;;6.60;1.85;;;7.50;90.80;;;;;;5047680;28;20051;-67
2021/12/19 07:42:46;;;;;;;6.55;2.10;;;7.50;90.80;;;;;;5047826;28;20580;-67
2021/12/19 07:45:13;;;;;;;7.85;1.75;;;7.50;90.90;;;;;;5046785;28;20064;-67
2021/12/19 07:47:39;;;;;;;8.30;1.60;;;7.50;90.90;;;;;;5047818;28;20041;-67
2021/12/19 07:50:07;;;;;;;7.70;2.17;;;7.50;91.00;;;;;;5047893;28;20107;-67
2021/12/19 07:52:33;;;;;;;7.57;2.90;;;7.50;91.10;;;;;;5041123;28;20107;-67
2021/12/19 07:54:58;;;;;;;8.02;2.10;;;7.50;91.20;;;;;;5047466;28;20164;-67
2021/12/19 07:57:24;;;;;;;4.38;1.95;;;7.50;91.30;;;;;;5048301;28;20087;-67
2021/12/19 07:59:50;;;;;;;8.98;2.85;;;7.40;91.40;;;;;;5047368;28;20076;-67
2021/12/19 08:02:16;;;;;;;9.98;3.03;;;7.40;91.40;;;;;;5047504;28;20048;-66
2021/12/19 08:04:41;;;;;;;11.57;3.08;;;7.50;91.50;;;;;;5047626;28;20044;-67
2021/12/19 08:07:11;;;;;;;12.93;3.10;;;7.40;91.60;;;;;;5047635;28;20063;-67
2021/12/19 08:09:40;;;;;;;13.65;3.00;;;7.40;91.50;;;;;;5037970;28;20049;-67
2021/12/19 08:12:06;;;;;;;11.50;2.72;;;7.40;91.80;;;;;;5031968;28;20676;-66
2021/12/19 08:14:32;;;;;;;12.50;3.38;;;7.40;91.90;;;;;;5032903;28;20048;-66
2021/12/19 08:16:58;;;;;;;10.30;3.42;;;7.30;91.90;;;;;;5036943;28;20517;-66
2021/12/19 08:19:24;;;;;;;16.88;3.55;;;7.40;92.00;;;;;;5029900;28;20037;-66
2021/12/19 08:21:49;;;;;;;11.82;4.45;;;7.40;92.00;;;;;;5036022;28;20034;-66
2021/12/19 08:24:15;;;;;;;15.93;4.25;;;7.40;92.00;;;;;;5031101;28;20045;-66
2021/12/19 08:26:42;;;;;;;15.95;3.85;;;7.50;92.00;;;;;;5031144;28;20041;-66
2021/12/19 08:29:10;;;;;;;18.63;3.50;;;7.50;91.90;;;;;;5030279;28;20049;-66
2021/12/19 08:31:36;;;;;;;9.75;3.45;;;7.50;91.50;;;;;;5045496;28;20770;-67
2021/12/19 08:34:02;;;;;;;9.50;2.97;;;7.60;91.50;;;;;;5044973;28;20133;-66
2021/12/19 08:36:27;;;;;;;16.35;3.38;;;7.60;91.50;;;;;;5048023;28;20095;-67
2021/12/19 08:38:53;;;;;;;16.45;2.97;;;7.60;91.30;;;;;;5048195;28;20413;-67
2021/12/19 08:41:19;;;;;;;13.70;3.75;;;7.60;91.30;;;;;;5021052;28;20431;-67
2021/12/19 08:43:46;;;;;;;15.85;3.33;;;7.60;91.20;;;;;;5035205;28;20033;-67
2021/12/19 08:46:12;;;;;;;11.32;3.08;;;7.70;91.20;;;;;;5046436;28;20053;-66
2021/12/19 08:48:39;;;;;;;13.35;2.85;;;7.70;91.20;;;;;;5041316;28;20120;-66
2021/12/19 08:51:05;;;;;;;13.77;3.10;;;7.70;91.10;;;;;;5048220;28;20128;-67
2021/12/19 08:53:30;;;;;;;13.55;3.30;;;7.60;91.10;;;;;;5047824;28;20160;-66
2021/12/19 08:55:56;;;;;;;13.32;3.60;;;7.70;91.20;;;;;;5028936;28;20048;-66
2021/12/19 08:58:22;;;;;;;11.15;3.58;;;7.70;91.20;;;;;;5046762;28;20041;-66
2021/12/19 09:00:48;;;;;;;10.30;3.15;;;7.70;91.40;;;;;;5034387;28;20098;-67
2021/12/19 09:03:14;;;;;;;18.30;4.10;;;7.70;91.50;;;;;;5042623;28;20080;-67
2021/12/19 09:05:40;;;;;;;20.48;5.07;;;7.70;91.50;;;;;;5037520;28;20044;-68
2021/12/19 09:08:05;;;;;;;15.88;3.80;;;7.80;91.50;;;;;;5044288;28;20217;-68
2021/12/19 09:10:31;;;;;;;13.85;3.22;;;7.70;91.70;;;;;;5044426;28;20052;-68
2021/12/19 09:12:57;;;;;;;16.50;4.70;;;7.80;91.70;;;;;;5034392;28;20046;-67
2021/12/19 09:15:23;;;;;;;18.58;4.05;;;7.70;91.80;;;;;;5030262;28;20125;-68
2021/12/19 09:17:49;;;;;;;17.77;5.72;;;7.80;91.70;;;;;;5034224;28;20041;-66
2021/12/19 09:20:15;;;;;;;20.13;3.85;;;7.80;91.80;;;;;;5030189;28;20042;-68
2021/12/19 09:22:41;;;;;;;20.40;5.15;;;7.80;91.80;;;;;;5044605;28;20303;-68
2021/12/19 09:25:08;;;;;;;17.63;4.93;;;7.90;91.90;;;;;;5047106;28;20497;-68
2021/12/19 09:27:33;;;;;;;15.70;3.65;;;7.80;91.90;;;;;;5049869;28;20041;-69
2021/12/19 09:29:59;;;;;;;14.18;3.58;;;7.90;91.90;;;;;;5050126;28;20114;-68
2021/12/19 09:32:25;;;;;;;21.13;6.70;;;7.90;91.90;;;;;;5049726;28;20049;-68
2021/12/19 09:34:50;;;;;;;17.67;3.92;;;7.90;91.70;;;;;;5050728;28;20065;-68
2021/12/19 09:37:16;;;;;;;8.02;2.90;;;7.80;91.80;;;;;;5048893;28;20045;-68
2021/12/19 09:39:42;;;;;;;8.73;4.20;;;7.90;91.80;;;;;;5032155;28;20645;-68
2021/12/19 09:42:11;;;;;;;9.68;3.22;;;7.90;91.70;;;;;;5051335;28;20136;-68
2021/12/19 09:44:39;;;;;;;15.70;2.97;;;7.90;91.50;;;;;;5051288;28;20045;-68
2021/12/19 09:47:07;;;;;;;12.68;2.85;;;8.00;91.50;;;;;;5048854;28;20527;-68
2021/12/19 09:49:34;;;;;;;11.23;2.80;;;8.00;91.50;;;;;;5032063;28;20045;-68
2021/12/19 09:52:01;;;;;;;22.38;3.80;;;8.00;91.40;;;;;;5032033;28;20088;-68
2021/12/19 09:54:31;;;;;;;23.13;6.78;;;7.90;91.50;;;;;;5050816;28;20175;-68
2021/12/19 09:56:57;;;;;;;11.73;2.70;;;7.90;91.60;;;;;;5049693;28;20364;-68
2021/12/19 09:59:23;;;;;;;14.27;2.72;;;8.00;91.60;;;;;;5051010;28;20060;-68
2021/12/19 10:01:50;;;;;;;11.60;2.92;;;8.00;91.50;;;;;;5049669;28;20049;-68
2021/12/19 10:04:39;;;;;;;8.40;2.88;;;8.00;91.60;;;;;;5049727;28;20041;-69
2021/12/19 10:07:28;;;;;;;13.57;3.15;;;8.20;91.70;;;;;;5050529;28;20114;-68
2021/12/19 10:10:12;;;;;;;16.35;3.60;;;8.50;91.60;;;;;;5041320;28;20490;-68
2021/12/19 10:15:17;;;;;;;15.13;4.28;;;8.40;90.90;;;;;;5048039;28;20049;-68
2021/12/19 10:17:42;;;;;;;12.23;4.95;;;8.30;90.80;;;;;;5048871;28;20091;-68
2021/12/19 10:20:12;;;;;;;13.52;2.72;;;8.30;90.90;;;;;;5048102;28;20056;-68
2021/12/19 10:22:39;;;;;;;13.32;4.15;;;8.20;90.90;;;;;;5048546;28;20044;-68
2021/12/19 10:25:07;;;;;;;20.45;4.80;;;8.30;90.90;;;;;;5049278;28;20177;-68
2021/12/19 10:27:39;;;;;;;13.95;3.65;;;8.20;90.70;;;;;;5048804;28;20037;-67
2021/12/19 10:30:12;;;;;;;18.85;4.07;;;8.20;90.90;;;;;;5048925;28;20052;-67
2021/12/19 10:32:49;;;;;;;11.57;3.65;;;8.20;90.90;;;;;;5049312;28;20052;-67
2021/12/19 10:35:19;;;;;;;15.63;3.63;;;8.20;90.90;;;;;;5048151;28;20037;-67
2021/12/19 10:37:45;;;;;;;19.60;3.83;;;8.20;90.90;;;;;;5050018;28;20040;-67
2021/12/19 10:40:11;;;;;;;10.68;3.13;;;8.20;90.90;;;;;;5048666;28;20364;-67
2021/12/19 10:43:07;;;;;;;13.30;3.67;;;8.20;90.70;;;;;;5049114;28;20060;-67
2021/12/19 10:45:42;;;;;;;12.50;3.25;;;8.20;90.80;;;;;;5033507;28;20053;-67
2021/12/19 10:48:31;;;;;;;17.05;3.97;;;8.20;91.10;;;;;;5034729;28;20041;-67
2021/12/19 10:51:02;;;;;;;19.73;3.58;;;8.20;91.10;;;;;;5039340;28;20564;-67
2021/12/19 10:53:32;;;;;;;16.48;3.33;;;8.20;91.20;;;;;;5048402;28;20528;-66
2021/12/19 10:55:59;;;;;;;22.95;4.25;;;8.30;91.30;;;;;;5043830;28;20049;-66
2021/12/19 10:58:56;;;;;;;15.40;4.80;;;8.30;91.10;;;;;;5049143;28;20049;-66
2021/12/19 11:01:29;;;;;;;21.95;5.88;;;8.30;91.10;;;;;;5043961;28;20076;-66
2021/12/19 11:04:01;;;;;;;12.13;3.30;;;8.30;90.90;;;;;;5031492;28;20132;-66
2021/12/19 11:06:34;;;;;;;14.77;3.97;;;8.30;90.60;;;;;;5039622;28;20121;-66
2021/12/19 11:09:16;;;;;;;17.17;3.45;;;8.30;90.50;;;;;;5041067;28;20053;-66
2021/12/19 11:12:02;;;;;;;12.57;3.83;;;8.30;90.50;;;;;;5034071;28;20041;-66
2021/12/19 11:14:37;;;;;;;18.00;3.78;;;8.30;90.00;;;;;;5043465;28;20291;-66
2021/12/19 11:17:20;;;;;;;13.50;4.18;;;8.30;90.10;;;;;;5044648;28;20041;-66
2021/12/19 11:19:47;;;;;;;21.52;3.85;;;8.30;90.00;;;;;;5038703;28;20044;-66
2021/12/19 11:22:22;;;;;;;15.95;3.03;;;8.30;90.20;;;;;;5029387;28;20054;-66
2021/12/19 11:24:48;;;;;;;15.05;4.05;;;8.30;90.30;;;;;;5044111;28;20045;-66
2021/12/19 11:27:14;;;;;;;16.75;3.38;;;8.30;90.20;;;;;;5047607;28;20041;-67
2021/12/19 11:29:42;;;;;;;12.63;3.70;;;8.30;90.40;;;;;;5036758;28;20036;-67
2021/12/19 11:32:09;;;;;;;17.05;3.65;;;8.30;90.30;;;;;;5046529;28;20048;-68
2021/12/19 11:34:56;;;;;;;12.52;3.17;;;8.40;90.40;;;;;;5042884;28;20049;-65
2021/12/19 11:37:33;;;;;;;19.48;3.92;;;8.40;90.50;;;;;;5047264;28;20132;-68
2021/12/19 11:39:59;;;;;;;14.15;4.47;;;8.50;90.70;;;;;;5048682;28;20544;-66
2021/12/19 11:42:39;;;;;;;16.83;4.15;;;8.40;90.60;;;;;;5048063;28;20049;-67
2021/12/19 11:47:58;;;;;;;14.65;3.80;;;8.50;90.70;;;;;;5049006;28;20059;-67
2021/12/19 11:50:28;;;;;;;18.15;4.55;;;8.40;90.80;;;;;;5048072;28;20382;-67
2021/12/19 11:53:28;;;;;;;14.40;2.67;;;8.30;90.80;;;;;;5029031;28;20479;-67
2021/12/19 11:55:57;;;;;;;18.02;3.15;;;8.40;90.60;;;;;;5027989;28;20042;-67
2021/12/19 11:58:28;;;;;;;10.90;3.22;;;8.30;91.00;;;;;;5028911;28;20041;-67
2021/12/19 12:01:02;;;;;;;19.83;4.10;;;8.30;91.00;;;;;;5040180;28;20041;-67
2021/12/19 12:03:30;;;;;;;13.15;3.70;;;8.20;91.10;;;;;;5037911;28;20056;-67
2021/12/19 12:05:58;;;;;;;8.63;2.70;;;8.20;91.30;;;;;;5046357;28;20099;-67
2021/12/19 12:08:25;;;;;;;20.25;4.38;;;8.20;91.20;;;;;;5047818;28;20052;-67
2021/12/19 12:10:55;;;;;;;12.32;3.65;;;8.20;91.40;;;;;;5038224;28;20037;-67
2021/12/19 12:13:25;;;;;;;14.35;4.07;;;8.20;91.50;;;;;;5028790;28;20053;-67
2021/12/19 12:15:57;;;;;;;19.52;5.80;;;8.20;91.50;;;;;;5048234;28;20080;-67
2021/12/19 12:18:34;;;;;;;14.20;3.20;;;8.20;91.50;;;;;;5040681;28;20041;-67
2021/12/19 12:21:18;;;;;;;18.75;4.13;;;8.20;91.50;;;;;;5040582;28;20099;-65
2021/12/19 12:24:03;;;;;;;21.75;4.05;;;8.30;91.50;;;;;;5028647;28;20056;-67
2021/12/19 12:26:43;;;;;;;17.23;3.70;;;8.30;91.40;;;;;;5037581;28;20041;-67
2021/12/19 12:29:09;;;;;;;15.68;3.40;;;8.30;91.20;;;;;;5046762;28;20105;-67
2021/12/19 12:31:35;;;;;;;26.58;6.35;;;8.30;91.10;;;;;;5045861;28;20033;-67
2021/12/19 12:34:03;;;;;;;22.85;4.22;;;8.30;90.10;;;;;;5043838;28;20037;-68
2021/12/19 12:36:29;;;;;;;27.50;4.00;;;8.40;90.60;;;;;;5029760;28;20120;-67
2021/12/19 12:38:55;;;;;;;14.48;3.17;;;8.40;90.30;;;;;;5040281;28;20176;-68
2021/12/19 12:41:52;;;;;;;30.25;6.80;;;8.40;89.90;;;;;;5028368;28;20060;-67
2021/12/19 12:44:14;;;;;;;22.15;3.60;;;8.50;90.10;;;;;;5043513;28;20199;-67
2021/12/19 12:46:44;;;;;;;18.50;3.97;;;8.50;89.80;;;;;;5061817;28;20032;-66
2021/12/19 12:49:18;;;;;;;12.32;3.53;;;8.50;89.60;;;;;;5052633;28;20056;-66
2021/12/19 12:51:46;;;;;;;19.95;3.80;;;8.50;89.50;;;;;;5051907;28;20518;-69
2021/12/19 12:54:17;;;;;;;16.90;3.15;;;8.60;89.30;;;;;;5051869;28;20048;-68
2021/12/19 12:56:47;;;;;;;13.80;3.05;;;8.70;89.60;;;;;;5049340;28;20588;-65
2021/12/19 12:59:15;;;;;;;18.42;3.33;;;8.90;89.10;;;;;;5050031;28;20417;-65
2021/12/19 13:01:46;;;;;;;19.50;4.28;;;9.30;89.20;;;;;;5051855;28;20047;-65
2021/12/19 13:04:17;;;;;;;12.35;3.42;;;9.60;88.60;;;;;;5051592;28;20045;-66
2021/12/19 13:07:00;;;;;;;18.80;3.53;;;9.80;87.70;;;;;;5051798;28;20436;-63
2021/12/19 13:09:28;;;;;;;13.25;3.85;;;10.00;87.10;;;;;;5050514;28;20394;-63
2021/12/19 13:12:00;;;;;;;22.55;6.80;;;10.10;86.70;;;;;;5050782;28;20063;-63
2021/12/19 13:14:29;;;;;;;18.40;3.40;;;10.30;86.60;;;;;;5048108;28;20045;-65
2021/12/19 13:17:01;;;;;;;23.08;3.42;;;10.40;85.60;;;;;;5042026;28;20037;-67
2021/12/19 13:19:41;;;;;;;21.77;3.78;;;10.20;83.10;;;;;;5046323;28;20410;-68
2021/12/19 13:22:09;;;;;;;17.35;3.97;;;10.00;84.10;;;;;;5043118;28;20545;-66
2021/12/19 13:24:35;;;;;;;17.65;3.22;;;9.90;84.40;;;;;;5048047;28;20069;-66
2021/12/19 13:27:11;;;;;;;18.70;2.97;;;9.90;84.40;;;;;;5048950;28;20049;-65
2021/12/19 13:29:38;;;;;;;15.13;3.55;;;10.10;84.00;;;;;;5047966;28;20072;-66
2021/12/19 13:32:24;;;;;;;19.50;4.05;;;10.10;83.20;;;;;;5050402;28;20047;-67
2021/12/19 13:34:51;;;;;;;20.40;4.68;;;10.20;82.70;;;;;;5050588;28;20029;-67
2021/12/19 13:37:17;;;;;;;12.10;2.83;;;10.20;82.50;;;;;;5051411;28;20087;-67
2021/12/19 13:39:48;;;;;;;19.02;2.78;;;10.10;82.60;;;;;;5050265;28;20087;-68
2021/12/19 13:42:14;;;;;;;13.05;2.90;;;10.10;82.40;;;;;;5049310;28;20049;-67
2021/12/19 13:44:41;;;;;;;14.85;3.22;;;10.20;82.90;;;;;;5043386;28;20045;-67
2021/12/19 13:47:24;;;;;;;17.02;4.22;;;10.20;82.90;;;;;;5048299;28;20044;-65
2021/12/19 13:49:49;;;;;;;20.58;4.90;;;10.30;82.40;;;;;;5042949;28;20049;-67
2021/12/19 13:52:16;;;;;;;13.68;3.60;;;10.10;83.00;;;;;;5043843;28;20489;-67
2021/12/19 13:54:41;;;;;;;17.90;2.92;;;9.90;83.20;;;;;;5029883;28;20091;-67
2021/12/19 13:57:18;;;;;;;17.58;2.95;;;9.60;83.30;;;;;;5048337;28;20056;-67
2021/12/19 13:59:44;;;;;;;17.23;2.80;;;9.50;83.90;;;;;;5051331;28;20041;-67
2021/12/19 14:02:11;;;;;;;24.75;3.50;;;9.30;84.30;;;;;;5049447;28;20071;-67
2021/12/19 14:04:37;;;;;;;19.98;3.50;;;9.10;84.70;;;;;;5050849;28;20041;-67